Time;durP1;ratioP1;P1;durP2;ratioP2;P2;SDS_P1;SDS_P2;PMS_P1;PMS_P2;Temp;Humidity;BMP_temperature;BMP_pressure;BME280_temperature;BME280_humidity;BME280_pressure;Samples;Min_cycle;Max_cycle;Signal;HPM_P1;HPM_P2
2021/01/22 00:01:31;;;;;;;;;;;6.70;99.90;;;;;;5038293;28;19910;-91
2021/01/22 00:03:56;;;;;;;;;;;6.80;99.90;;;;;;5028213;28;19906;-91
2021/01/22 00:06:23;;;;;;;;;;;6.90;99.90;;;;;;5035265;28;19910;-91
2021/01/22 00:08:48;;;;;;;;;;;7.00;99.90;;;;;;5041245;28;19913;-90
2021/01/22 00:11:14;;;;;;;;;;;7.10;99.90;;;;;;5046558;28;19905;-90
2021/01/22 00:13:40;;;;;;;;;;;7.10;99.90;;;;;;5043568;28;19909;-90
2021/01/22 00:18:41;;;;;;;;;;;7.20;99.90;;;;;;5491531;22;19908;-93
2021/01/22 00:21:07;;;;;;;;;;;7.30;99.90;;;;;;5054077;23;19955;-93
2021/01/22 00:23:37;;;;;;;;;;;7.30;99.90;;;;;;5414565;22;19913;-93
2021/01/22 00:26:03;;;;;;;;;;;7.30;99.90;;;;;;5037227;28;19909;-92
2021/01/22 00:28:29;;;;;;;;;;;7.40;99.90;;;;;;5619750;22;19921;-92
2021/01/22 00:30:54;;;;;;;;;;;7.40;99.90;;;;;;5051946;28;19916;-92
2021/01/22 00:33:20;;;;;;;;;;;7.50;99.90;;;;;;5053928;28;19909;-92
2021/01/22 00:35:45;;;;;;;;;;;7.50;99.90;;;;;;5063133;22;19943;-94
2021/01/22 00:38:11;;;;;;;;;;;7.50;99.90;;;;;;5036135;28;19904;-93
2021/01/22 00:40:37;;;;;;;;;;;7.60;99.90;;;;;;5052026;22;19939;-92
2021/01/22 00:43:02;;;;;;;;;;;7.70;99.90;;;;;;5256467;22;19923;-90
2021/01/22 00:59:26;;;;;;;;;;;8.20;99.90;;;;;;5551388;22;19919;-92
2021/01/22 01:01:52;;;;;;;;;;;8.30;99.90;;;;;;5055157;28;19897;-92
2021/01/22 01:04:17;;;;;;;;;;;8.40;99.90;;;;;;5044053;28;19925;-92
2021/01/22 01:06:44;;;;;;;;;;;8.50;99.90;;;;;;5036891;28;19917;-94
2021/01/22 01:09:09;;;;;;;;;;;8.60;99.90;;;;;;5077864;23;19916;-91
2021/01/22 01:11:35;;;;;;;;;;;8.60;99.90;;;;;;5057274;28;19909;-92
2021/01/22 01:14:00;;;;;;;;;;;8.60;99.90;;;;;;5084701;22;19897;-90
2021/01/22 01:16:26;;;;;;;;;;;8.80;99.90;;;;;;5130477;23;19921;-92
2021/01/22 01:18:54;;;;;;;;;;;8.90;99.90;;;;;;5032285;28;19909;-93
2021/01/22 01:21:20;;;;;;;;;;;8.90;99.90;;;;;;5066076;23;19931;-91
2021/01/22 01:23:45;;;;;;;;;;;8.90;99.90;;;;;;5035299;28;19894;-92
2021/01/22 01:26:11;;;;;;;;;;;9.00;99.90;;;;;;5034567;28;19944;-92
2021/01/22 01:28:37;;;;;;;;;;;9.00;99.90;;;;;;5084392;23;19925;-92
2021/01/22 01:33:39;;;;;;;;;;;9.10;99.90;;;;;;5091105;22;19921;-92
2021/01/22 01:36:05;;;;;;;;;;;9.10;99.90;;;;;;5053768;28;19953;-91
2021/01/22 01:38:31;;;;;;;;;;;9.10;99.90;;;;;;5046476;28;19920;-92
2021/01/22 01:40:57;;;;;;;;;;;9.10;99.90;;;;;;5012309;28;19969;-93
2021/01/22 01:43:23;;;;;;;;;;;9.20;99.90;;;;;;5228743;23;19970;-90
2021/01/22 01:45:48;;;;;;;;;;;9.20;99.90;;;;;;5265686;23;19914;-89
2021/01/22 01:48:14;;;;;;;;;;;9.20;99.90;;;;;;5035684;28;19910;-92
2021/01/22 01:50:40;;;;;;;;;;;9.20;99.90;;;;;;5320993;22;19932;-93
2021/01/22 01:53:07;;;;;;;;;;;9.20;99.90;;;;;;5015106;28;19902;-92
2021/01/22 01:55:34;;;;;;;;;;;9.20;99.90;;;;;;5076639;22;19930;-92
2021/01/22 02:00:35;;;;;;;;;;;9.10;99.90;;;;;;5372763;22;19921;-92
2021/01/22 02:03:02;;;;;;;;;;;9.10;99.90;;;;;;5034319;28;19941;-92
2021/01/22 02:05:28;;;;;;;;;;;9.10;99.90;;;;;;5040610;28;19981;-92
2021/01/22 02:07:53;;;;;;;;;;;9.10;99.90;;;;;;5031504;28;19897;-93
2021/01/22 02:10:21;;;;;;;;;;;9.10;99.90;;;;;;5027643;28;19977;-92
2021/01/22 02:12:47;;;;;;;;;;;9.10;99.90;;;;;;5027914;28;19906;-93
2021/01/22 02:15:14;;;;;;;;;;;9.10;99.90;;;;;;5026549;28;19906;-92
2021/01/22 02:20:32;;;;;;;;;;;9.10;99.90;;;;;;5516928;22;19905;-92
2021/01/22 02:22:59;;;;;;;;;;;9.10;99.90;;;;;;5054769;28;19947;-92
2021/01/22 02:25:35;;;;;;;;;;;9.10;99.90;;;;;;5050062;28;19905;-92
2021/01/22 02:28:05;;;;;;;;;;;9.20;99.90;;;;;;5091747;23;19936;-92
2021/01/22 02:30:32;;;;;;;;;;;9.10;99.90;;;;;;5053064;28;19940;-92
2021/01/22 02:33:00;;;;;;;;;;;9.10;99.90;;;;;;5049713;28;19928;-91
2021/01/22 02:40:35;;;;;;;;;;;9.10;99.90;;;;;;5051696;28;19928;-90
2021/01/22 02:43:01;;;;;;;;;;;9.10;99.90;;;;;;5054366;28;19909;-93
2021/01/22 02:45:28;;;;;;;;;;;9.00;99.90;;;;;;5054196;28;19905;-92
2021/01/22 02:47:54;;;;;;;;;;;9.00;99.90;;;;;;5107445;23;19917;-93
2021/01/22 02:50:55;;;;;;;;;;;9.00;99.90;;;;;;5003175;28;19957;-92
2021/01/22 02:53:21;;;;;;;;;;;9.00;99.90;;;;;;4963646;28;19898;-90
2021/01/22 02:55:46;;;;;;;;;;;9.00;99.90;;;;;;5024533;23;19920;-92
2021/01/22 02:58:15;;;;;;;;;;;9.00;99.90;;;;;;5038239;28;19921;-93
2021/01/22 03:00:45;;;;;;;;;;;9.00;99.90;;;;;;5051862;28;19905;-93
2021/01/22 03:03:10;;;;;;;;;;;9.00;99.90;;;;;;5041541;28;19904;-94
2021/01/22 03:05:37;;;;;;;;;;;9.00;99.90;;;;;;5770308;22;19924;-90
2021/01/22 03:08:12;;;;;;;;;;;9.00;99.90;;;;;;5037262;28;19917;-93
2021/01/22 03:10:39;;;;;;;;;;;8.90;99.90;;;;;;5039391;28;19897;-94
2021/01/22 03:23:36;;;;;;;;;;;7.30;99.90;;;;;;5502774;22;19939;-92
2021/01/22 03:26:03;;;;;;;;;;;6.90;99.90;;;;;;5016160;28;20028;-92
2021/01/22 03:28:32;;;;;;;;;;;6.60;99.90;;;;;;5015570;28;19988;-92
2021/01/22 03:31:23;;;;;;;;;;;6.30;99.90;;;;;;5027491;28;20417;-92
2021/01/22 03:34:08;;;;;;;;;;;6.20;99.90;;;;;;4999170;28;19897;-93
2021/01/22 04:59:14;;;;;;;;;;;4.10;99.90;;;;;;5375794;22;20008;-90
2021/01/22 05:01:40;;;;;;;;;;;4.10;99.90;;;;;;5000134;28;19909;-89
2021/01/22 05:11:52;;;;;;;;;;;4.10;99.90;;;;;;5555267;22;19928;-85
2021/01/22 05:14:17;;;;;;;;;;;4.10;99.90;;;;;;5009498;28;20302;-85
2021/01/22 05:32:25;;;;;;;;;;;4.00;99.90;;;;;;5580869;23;19909;-89
2021/01/22 05:34:54;;;;;;;;;;;4.00;99.90;;;;;;4996732;28;19957;-90
2021/01/22 06:03:22;;;;;;;;;;;3.80;99.90;;;;;;5050713;28;19921;-93
2021/01/22 06:05:54;;;;;;;;;;;3.80;99.90;;;;;;5067863;23;19994;-90
2021/01/22 06:08:20;;;;;;;;;;;3.80;99.90;;;;;;5053648;28;19908;-94
2021/01/22 06:10:45;;;;;;;;;;;3.80;99.90;;;;;;5034421;28;19889;-91
2021/01/22 06:13:12;;;;;;;;;;;3.90;99.90;;;;;;5032589;28;19913;-93
2021/01/22 06:15:38;;;;;;;;;;;3.90;99.90;;;;;;5032453;28;19909;-93
2021/01/22 06:18:04;;;;;;;;;;;4.00;99.90;;;;;;5056989;23;19940;-93
2021/01/22 06:20:33;;;;;;;;;;;4.00;99.90;;;;;;5053532;28;19917;-91
2021/01/22 06:23:04;;;;;;;;;;;4.10;99.90;;;;;;5053714;28;19893;-90
2021/01/22 06:28:06;;;;;;;;;;;4.20;99.90;;;;;;5289184;22;19909;-93
2021/01/22 06:30:35;;;;;;;;;;;4.30;99.90;;;;;;5764809;23;19927;-89
2021/01/22 06:33:03;;;;;;;;;;;4.30;99.90;;;;;;5152862;23;19978;-91
2021/01/22 06:35:29;;;;;;;;;;;4.30;99.90;;;;;;5522192;22;19920;-91
2021/01/22 06:37:58;;;;;;;;;;;4.40;99.90;;;;;;5453687;23;19951;-89
2021/01/22 06:55:51;;;;;;;;;;;4.60;99.90;;;;;;5065343;28;19940;-92
2021/01/22 06:58:24;;;;;;;;;;;4.60;99.90;;;;;;5052590;28;20230;-92
2021/01/22 07:00:52;;;;;;;;;;;4.60;99.90;;;;;;5064507;28;19924;-91
2021/01/22 07:03:38;;;;;;;;;;;4.60;99.90;;;;;;5004747;28;19916;-91
2021/01/22 07:06:04;;;;;;;;;;;4.70;99.90;;;;;;4962245;28;19954;-93
2021/01/22 07:08:49;;;;;;;;;;;4.70;99.90;;;;;;4953660;29;19938;-93
2021/01/22 07:11:14;;;;;;;;;;;4.70;99.90;;;;;;4961240;28;19933;-92
2021/01/22 07:13:42;;;;;;;;;;;4.70;99.90;;;;;;4955476;28;19910;-93
2021/01/22 07:16:21;;;;;;;;;;;4.80;99.90;;;;;;4934603;28;19955;-93
2021/01/22 07:18:54;;;;;;;;;;;4.70;99.90;;;;;;4953821;29;19911;-92
2021/01/22 07:21:31;;;;;;;;;;;4.80;99.90;;;;;;4951918;29;19966;-91
2021/01/22 07:23:59;;;;;;;;;;;4.70;99.90;;;;;;4937317;29;19925;-93
2021/01/22 07:26:28;;;;;;;;;;;4.80;99.90;;;;;;4941307;29;19928;-93
2021/01/22 07:28:54;;;;;;;;;;;4.80;99.90;;;;;;4925899;29;19903;-91
2021/01/22 07:31:38;;;;;;;;;;;4.80;99.90;;;;;;4925996;29;19903;-91
2021/01/22 07:34:04;;;;;;;;;;;4.90;99.90;;;;;;4921077;29;19915;-92
2021/01/22 07:36:29;;;;;;;;;;;4.80;99.90;;;;;;4915563;29;19922;-92
2021/01/22 07:38:55;;;;;;;;;;;4.90;99.90;;;;;;4893568;29;19915;-90
2021/01/22 07:41:21;;;;;;;;;;;4.90;99.90;;;;;;4908206;29;19900;-92
2021/01/22 07:44:00;;;;;;;;;;;4.80;99.90;;;;;;4973476;28;19914;-92
2021/01/22 07:46:28;;;;;;;;;;;4.80;99.90;;;;;;4981703;28;19918;-91
2021/01/22 07:49:06;;;;;;;;;;;4.80;99.90;;;;;;4989455;28;19906;-90
2021/01/22 07:51:32;;;;;;;;;;;4.80;99.90;;;;;;4985113;28;19941;-91
2021/01/22 07:53:58;;;;;;;;;;;4.80;99.90;;;;;;5017980;28;19909;-90
2021/01/22 07:56:34;;;;;;;;;;;4.80;99.90;;;;;;5015055;28;19922;-92
2021/01/22 07:59:01;;;;;;;;;;;4.80;99.90;;;;;;5008719;28;19952;-91
2021/01/22 08:01:26;;;;;;;;;;;4.90;99.90;;;;;;5049075;28;19909;-91
2021/01/22 08:03:52;;;;;;;;;;;4.90;99.90;;;;;;5035817;28;19928;-90
2021/01/22 08:06:18;;;;;;;;;;;5.00;99.90;;;;;;5052376;28;19913;-91
2021/01/22 08:08:46;;;;;;;;;;;5.00;99.90;;;;;;5035188;28;19913;-91
2021/01/22 08:11:21;;;;;;;;;;;5.00;99.90;;;;;;5050498;28;19917;-91
2021/01/22 08:13:47;;;;;;;;;;;5.00;99.90;;;;;;5054435;28;19917;-91
2021/01/22 08:16:13;;;;;;;;;;;5.10;99.90;;;;;;5053171;28;19955;-91
2021/01/22 08:18:45;;;;;;;;;;;5.20;99.90;;;;;;5000661;28;19916;-91
2021/01/22 08:21:11;;;;;;;;;;;5.10;99.90;;;;;;5008563;28;19914;-92
2021/01/22 08:23:42;;;;;;;;;;;5.20;99.90;;;;;;5009130;28;20276;-92
2021/01/22 08:26:09;;;;;;;;;;;5.20;99.90;;;;;;4991850;28;19917;-92
2021/01/22 08:28:36;;;;;;;;;;;5.20;99.90;;;;;;4984318;28;19913;-91
2021/01/22 08:31:01;;;;;;;;;;;5.30;99.90;;;;;;4995516;28;19914;-93
2021/01/22 08:33:29;;;;;;;;;;;5.30;99.90;;;;;;5874167;22;20716;-92
2021/01/22 08:35:55;;;;;;;;;;;5.40;99.90;;;;;;5013817;28;19926;-91
2021/01/22 08:38:24;;;;;;;;;;;5.30;99.90;;;;;;4980280;28;19920;-90
2021/01/22 08:40:49;;;;;;;;;;;5.40;99.90;;;;;;4984352;28;19910;-91
2021/01/22 08:43:17;;;;;;;;;;;5.40;99.90;;;;;;4986130;28;19940;-92
2021/01/22 08:46:05;;;;;;;;;;;5.30;99.90;;;;;;4987219;28;20021;-91
2021/01/22 08:48:30;;;;;;;;;;;5.40;99.90;;;;;;4992215;28;19989;-90
2021/01/22 08:50:59;;;;;;;;;;;5.50;99.90;;;;;;4993953;28;19910;-90
2021/01/22 08:53:27;;;;;;;;;;;5.50;99.90;;;;;;4994002;28;19925;-91
2021/01/22 08:56:11;;;;;;;;;;;5.50;99.90;;;;;;4997627;28;19909;-90
2021/01/22 08:58:57;;;;;;;;;;;5.50;99.90;;;;;;4995530;28;19913;-91
2021/01/22 09:01:42;;;;;;;;;;;5.60;99.90;;;;;;5012411;28;19902;-90
2021/01/22 09:04:18;;;;;;;;;;;5.60;99.90;;;;;;5404751;22;19921;-89
2021/01/22 09:06:47;;;;;;;;;;;5.60;99.90;;;;;;5116443;22;20975;-89
2021/01/22 09:09:12;;;;;;;;;;;5.60;99.90;;;;;;5019501;28;19976;-90
2021/01/22 09:11:38;;;;;;;;;;;5.60;99.90;;;;;;5032111;28;19910;-90
2021/01/22 09:14:04;;;;;;;;;;;5.60;99.90;;;;;;5065324;23;19925;-91
2021/01/22 09:16:31;;;;;;;;;;;5.70;99.90;;;;;;5040085;28;19936;-91
2021/01/22 09:18:59;;;;;;;;;;;5.60;99.90;;;;;;5053445;28;19977;-91
2021/01/22 09:21:28;;;;;;;;;;;5.70;99.90;;;;;;5050864;28;19915;-90
2021/01/22 09:23:54;;;;;;;;;;;5.70;99.90;;;;;;5055272;28;19908;-92
2021/01/22 09:26:19;;;;;;;;;;;5.70;99.90;;;;;;5048416;28;19921;-92
2021/01/22 09:28:46;;;;;;;;;;;5.70;99.90;;;;;;5048971;28;19968;-91
2021/01/22 09:31:11;;;;;;;;;;;5.80;99.90;;;;;;5052280;28;19909;-91
2021/01/22 09:33:37;;;;;;;;;;;5.80;99.90;;;;;;5046369;28;19922;-90
2021/01/22 09:49:44;;;;;;;;;;;6.30;99.90;;;;;;5047108;28;19917;-90
2021/01/22 09:52:10;;;;;;;;;;;6.40;99.90;;;;;;5051707;28;19909;-91
2021/01/22 09:54:36;;;;;;;;;;;6.40;99.90;;;;;;5031089;28;19921;-90
2021/01/22 09:57:02;;;;;;;;;;;6.40;99.90;;;;;;5025886;28;19936;-91
2021/01/22 09:59:33;;;;;;;;;;;6.50;99.90;;;;;;5265438;23;20055;-93
2021/01/22 10:01:59;;;;;;;;;;;6.50;99.90;;;;;;5053921;23;19928;-90
2021/01/22 10:04:26;;;;;;;;;;;6.50;99.90;;;;;;5047404;28;19913;-90
2021/01/22 10:06:52;;;;;;;;;;;6.40;99.90;;;;;;5067589;28;19968;-93
2021/01/22 10:09:17;;;;;;;;;;;6.30;99.90;;;;;;5068953;23;19909;-90
2021/01/22 10:11:43;;;;;;;;;;;6.30;99.90;;;;;;5015180;28;19921;-84
2021/01/22 10:14:09;;;;;;;;;;;6.30;99.90;;;;;;5009380;28;19981;-85
2021/01/22 10:16:35;;;;;;;;;;;6.30;99.90;;;;;;5161576;23;19927;-89
2021/01/22 10:27:16;;;;;;;;;;;6.30;99.90;;;;;;5030821;28;19909;-84
2021/01/22 10:29:42;;;;;;;;;;;6.30;99.90;;;;;;5031492;28;19901;-84
2021/01/22 10:40:21;;;;;;;;;;;6.40;99.90;;;;;;5054826;28;19927;-88
2021/01/22 10:42:47;;;;;;;;;;;6.30;99.90;;;;;;5100610;23;19967;-90
2021/01/22 10:45:12;;;;;;;;;;;6.30;99.90;;;;;;5302684;23;19913;-90
2021/01/22 10:47:38;;;;;;;;;;;6.30;99.90;;;;;;5324102;23;19981;-91
2021/01/22 10:50:04;;;;;;;;;;;6.40;99.90;;;;;;5270638;22;19903;-89
2021/01/22 10:52:30;;;;;;;;;;;6.40;99.90;;;;;;5087612;23;19909;-89
2021/01/22 10:54:56;;;;;;;;;;;6.40;99.90;;;;;;5030244;28;19932;-88
2021/01/22 10:57:26;;;;;;;;;;;6.60;99.90;;;;;;5026120;28;19940;-88
2021/01/22 10:59:53;;;;;;;;;;;6.60;99.90;;;;;;5233612;23;19917;-93
2021/01/22 11:02:20;;;;;;;;;;;6.60;99.90;;;;;;5455494;23;19917;-93
2021/01/22 11:04:46;;;;;;;;;;;6.60;99.90;;;;;;5197767;23;19909;-92
2021/01/22 11:07:11;;;;;;;;;;;6.70;99.90;;;;;;5041609;23;20008;-92
2021/01/22 11:09:50;;;;;;;;;;;6.70;99.90;;;;;;5018358;28;19904;-93
2021/01/22 11:12:17;;;;;;;;;;;6.70;99.90;;;;;;5379593;23;19976;-93
2021/01/22 11:14:47;;;;;;;;;;;6.60;99.90;;;;;;5333273;23;20008;-92
2021/01/22 11:28:07;;;;;;;;;;;7.20;99.90;;;;;;5244754;23;20068;-92
2021/01/22 11:30:34;;;;;;;;;;;7.30;99.90;;;;;;4996651;28;19914;-93
2021/01/22 11:33:01;;;;;;;;;;;7.30;99.90;;;;;;5015060;23;19952;-92
2021/01/22 11:35:27;;;;;;;;;;;7.90;99.90;;;;;;4990638;28;19914;-92
2021/01/22 11:37:53;;;;;;;;;;;7.90;99.90;;;;;;5361074;22;19908;-88
2021/01/22 11:40:19;;;;;;;;;;;7.70;99.90;;;;;;4986706;28;20288;-91
2021/01/22 11:42:47;;;;;;;;;;;7.30;99.90;;;;;;4988510;28;20040;-89
2021/01/22 11:45:13;;;;;;;;;;;7.20;99.90;;;;;;5001456;28;20371;-91
2021/01/22 11:56:19;;;;;;;;;;;7.40;99.90;;;;;;4674169;22;20197;-92
2021/01/22 11:58:50;;;;;;;;;;;7.50;99.90;;;;;;5023087;28;19921;-93
2021/01/22 12:03:57;;;;;;;;;;;7.90;99.90;;;;;;5039804;22;19931;-93
2021/01/22 12:06:23;;;;;;;;;;;7.80;99.90;;;;;;5371079;22;19935;-89
2021/01/22 12:08:49;;;;;;;;;;;7.90;99.90;;;;;;5030484;28;19917;-91
2021/01/22 12:11:14;;;;;;;;;;;8.20;99.90;;;;;;5011898;28;19940;-84
2021/01/22 12:13:40;;;;;;;;;;;8.30;99.90;;;;;;5005169;28;19917;-84
2021/01/22 12:16:07;;;;;;;;;;;8.10;99.90;;;;;;5019394;28;20003;-90
2021/01/22 12:18:34;;;;;;;;;;;7.80;99.90;;;;;;5022367;28;19920;-92
2021/01/22 12:20:59;;;;;;;;;;;7.60;99.90;;;;;;5041776;28;19897;-92
2021/01/22 12:23:44;;;;;;;;;;;7.40;99.90;;;;;;5277347;23;19927;-93
2021/01/22 12:26:47;;;;;;;;;;;7.50;99.90;;;;;;5002065;28;19921;-91
2021/01/22 12:34:59;;;;;;;;;;;7.30;99.90;;;;;;5248044;23;20021;-89
2021/01/22 12:37:31;;;;;;;;;;;7.60;99.90;;;;;;5208683;22;19932;-92
2021/01/22 12:40:03;;;;;;;;;;;7.50;99.90;;;;;;5036083;28;19898;-94
2021/01/22 12:42:30;;;;;;;;;;;7.70;99.90;;;;;;5342318;22;19931;-88
2021/01/22 12:44:57;;;;;;;;;;;7.80;99.90;;;;;;5041929;23;19910;-93
2021/01/22 12:47:23;;;;;;;;;;;7.90;99.90;;;;;;4993648;28;19989;-92
2021/01/22 12:49:50;;;;;;;;;;;7.80;99.90;;;;;;5049883;23;19919;-90
2021/01/22 12:52:15;;;;;;;;;;;7.70;99.90;;;;;;5036198;28;20004;-91
2021/01/22 12:59:48;;;;;;;;;;;8.00;99.90;;;;;;5044271;28;19928;-91
2021/01/22 13:02:14;;;;;;;;;;;8.10;99.90;;;;;;5044962;28;19931;-89
2021/01/22 13:04:41;;;;;;;;;;;8.00;99.90;;;;;;5422468;23;19904;-89
2021/01/22 13:07:06;;;;;;;;;;;7.90;99.90;;;;;;5034617;28;20020;-90
2021/01/22 13:09:32;;;;;;;;;;;8.00;99.90;;;;;;5765081;22;19941;-91
2021/01/22 13:11:57;;;;;;;;;;;8.60;99.90;;;;;;5029003;28;19917;-90
2021/01/22 13:14:23;;;;;;;;;;;9.00;99.90;;;;;;5016199;28;19940;-91
2021/01/22 13:16:49;;;;;;;;;;;9.40;99.90;;;;;;5018267;28;19924;-90
2021/01/22 13:19:14;;;;;;;;;;;9.30;99.90;;;;;;4999859;28;19909;-90
2021/01/22 13:21:40;;;;;;;;;;;9.30;99.90;;;;;;5013845;28;19917;-91
2021/01/22 13:24:07;;;;;;;;;;;9.10;99.90;;;;;;5005446;28;19906;-91
2021/01/22 13:31:47;;;;;;;;;;;8.40;99.90;;;;;;5368308;23;19932;-91
2021/01/22 13:34:16;;;;;;;;;;;8.20;99.90;;;;;;5000471;28;19955;-92
2021/01/22 13:36:42;;;;;;;;;;;8.00;99.90;;;;;;4984323;28;20017;-92
2021/01/22 13:39:10;;;;;;;;;;;7.90;99.90;;;;;;5041311;23;19937;-90
2021/01/22 13:41:35;;;;;;;;;;;7.70;99.90;;;;;;5023168;28;19993;-89
2021/01/22 13:46:44;;;;;;;;;;;7.80;99.90;;;;;;5039825;22;19972;-92
2021/01/22 13:51:54;;;;;;;;;;;7.90;99.90;;;;;;5434431;22;7698344;-92
2021/01/22 13:54:27;;;;;;;;;;;8.00;99.90;;;;;;5271424;23;19921;-92
2021/01/22 13:56:55;;;;;;;;;;;8.00;99.90;;;;;;5029482;28;19939;-92
2021/01/22 13:59:21;;;;;;;;;;;7.90;99.90;;;;;;4985607;28;19914;-93
2021/01/22 14:01:49;;;;;;;;;;;7.80;99.90;;;;;;5457781;22;19909;-94
2021/01/22 14:32:32;;;;;;;;;;;7.70;99.90;;;;;;5067800;28;19908;-89
2021/01/22 14:34:58;;;;;;;;;;;7.80;99.90;;;;;;5067531;28;19927;-90
2021/01/22 14:40:23;;;;;;;;;;;7.70;99.90;;;;;;5409781;23;19909;-93
2021/01/22 14:42:50;;;;;;;;;;;7.60;99.90;;;;;;5032848;28;19944;-92
2021/01/22 14:45:16;;;;;;;;;;;7.50;99.90;;;;;;4997218;28;19897;-92
2021/01/22 14:47:42;;;;;;;;;;;7.40;99.90;;;;;;5061534;23;19972;-89
2021/01/22 14:50:07;;;;;;;;;;;7.40;99.90;;;;;;5039908;28;19920;-89
2021/01/22 14:52:33;;;;;;;;;;;7.40;99.90;;;;;;5042745;28;20505;-90
2021/01/22 14:55:01;;;;;;;;;;;7.30;99.90;;;;;;5068464;28;19914;-90
2021/01/22 14:57:27;;;;;;;;;;;7.30;99.90;;;;;;5068746;28;19985;-91
2021/01/22 14:59:52;;;;;;;;;;;7.20;99.90;;;;;;5044713;28;19921;-90
2021/01/22 15:02:18;;;;;;;;;;;7.20;99.90;;;;;;5063448;28;19964;-90
2021/01/22 15:04:44;;;;;;;;;;;7.20;99.90;;;;;;5048338;28;19912;-89
2021/01/22 15:07:10;;;;;;;;;;;7.20;99.90;;;;;;5037001;28;19951;-90
2021/01/22 15:09:35;;;;;;;;;;;7.10;99.90;;;;;;5051152;28;19921;-90
2021/01/22 15:12:01;;;;;;;;;;;7.10;99.90;;;;;;5068297;28;19900;-89
2021/01/22 15:14:26;;;;;;;;;;;7.20;99.90;;;;;;5047141;28;19901;-90
2021/01/22 15:16:52;;;;;;;;;;;7.10;99.90;;;;;;5037909;28;19924;-90
2021/01/22 15:19:18;;;;;;;;;;;7.00;99.90;;;;;;5013793;28;19921;-90
2021/01/22 15:21:43;;;;;;;;;;;6.90;99.90;;;;;;5029393;28;19973;-91
2021/01/22 15:24:09;;;;;;;;;;;6.90;99.90;;;;;;5029320;28;19921;-90
2021/01/22 15:26:36;;;;;;;;;;;6.80;99.90;;;;;;5030044;28;19905;-92
2021/01/22 15:29:01;;;;;;;;;;;6.80;99.90;;;;;;5075886;23;19989;-91
2021/01/22 15:31:27;;;;;;;;;;;6.70;99.90;;;;;;5039347;23;19950;-89
2021/01/22 15:37:11;;;;;;;;;;;6.60;99.90;;;;;;4989654;28;19918;-89
2021/01/22 15:39:38;;;;;;;;;;;6.60;99.90;;;;;;5204695;22;19909;-90
2021/01/22 15:42:05;;;;;;;;;;;6.60;99.90;;;;;;5026677;28;19984;-90
2021/01/22 15:44:31;;;;;;;;;;;6.60;99.90;;;;;;5025890;28;19910;-90
2021/01/22 15:46:56;;;;;;;;;;;6.60;99.90;;;;;;5022204;28;19928;-91
2021/01/22 15:49:22;;;;;;;;;;;6.60;99.90;;;;;;5020104;28;20322;-90
2021/01/22 15:51:47;;;;;;;;;;;6.50;99.90;;;;;;5024074;28;19910;-91
2021/01/22 15:54:13;;;;;;;;;;;6.50;99.90;;;;;;5045101;28;19914;-90
2021/01/22 15:56:40;;;;;;;;;;;6.50;99.90;;;;;;5023125;28;20000;-91
2021/01/22 15:59:06;;;;;;;;;;;6.40;99.90;;;;;;5150367;22;19923;-93
2021/01/22 16:01:37;;;;;;;;;;;6.40;99.90;;;;;;4987751;28;19976;-94
2021/01/22 16:04:04;;;;;;;;;;;6.30;99.90;;;;;;4992775;28;19901;-93
2021/01/22 16:06:31;;;;;;;;;;;6.30;99.90;;;;;;4996003;28;19924;-92
2021/01/22 16:08:57;;;;;;;;;;;6.20;99.90;;;;;;4996053;28;19913;-93
2021/01/22 16:13:55;;;;;;;;;;;6.20;99.90;;;;;;5041393;28;19921;-87
2021/01/22 16:16:20;;;;;;;;;;;6.20;99.90;;;;;;5026318;28;19910;-87
2021/01/22 16:18:46;;;;;;;;;;;6.10;99.90;;;;;;5026920;28;19917;-88
2021/01/22 16:21:11;;;;;;;;;;;6.10;99.90;;;;;;5023551;28;19948;-87
2021/01/22 16:23:37;;;;;;;;;;;6.00;99.90;;;;;;5028254;28;19913;-88
2021/01/22 16:26:02;;;;;;;;;;;6.00;99.90;;;;;;5029019;28;19893;-88
2021/01/22 16:28:28;;;;;;;;;;;5.90;99.90;;;;;;5033868;28;19920;-88
2021/01/22 16:30:53;;;;;;;;;;;5.90;99.90;;;;;;5022515;28;19960;-88
2021/01/22 16:33:19;;;;;;;;;;;5.90;99.90;;;;;;5023362;28;20361;-89
2021/01/22 16:36:08;;;;;;;;;;;5.90;99.90;;;;;;5044907;28;19909;-88
2021/01/22 16:38:33;;;;;;;;;;;5.80;99.90;;;;;;5033719;28;19937;-88
2021/01/22 16:40:59;;;;;;;;;;;5.80;99.90;;;;;;5032387;28;19928;-88
2021/01/22 16:43:24;;;;;;;;;;;5.70;99.90;;;;;;5043598;28;19913;-89
2021/01/22 16:45:50;;;;;;;;;;;5.70;99.90;;;;;;5033515;28;19908;-88
2021/01/22 16:48:16;;;;;;;;;;;5.70;99.90;;;;;;5036213;28;19968;-88
2021/01/22 16:50:42;;;;;;;;;;;5.60;99.90;;;;;;5032465;28;19901;-87
2021/01/22 16:53:08;;;;;;;;;;;5.60;99.90;;;;;;5031552;23;19997;-90
2021/01/22 16:55:34;;;;;;;;;;;5.60;99.90;;;;;;5012811;28;19961;-91
2021/01/22 16:58:02;;;;;;;;;;;5.60;99.90;;;;;;4998452;28;21099;-89
2021/01/22 17:00:28;;;;;;;;;;;5.50;99.90;;;;;;5127340;23;19929;-89
2021/01/22 17:02:54;;;;;;;;;;;5.50;99.90;;;;;;5078752;22;19932;-88
2021/01/22 17:05:19;;;;;;;;;;;5.50;99.90;;;;;;5005106;28;19914;-87
2021/01/22 17:07:45;;;;;;;;;;;5.50;99.90;;;;;;5026435;28;20009;-88
2021/01/22 17:10:17;;;;;;;;;;;5.50;99.90;;;;;;5020045;28;19910;-86
2021/01/22 17:12:42;;;;;;;;;;;5.50;99.90;;;;;;5044135;28;19902;-89
2021/01/22 17:15:08;;;;;;;;;;;5.50;99.90;;;;;;5032062;28;19910;-88
2021/01/22 17:18:02;;;;;;;;;;;5.50;99.90;;;;;;5027417;28;19959;-90
2021/01/22 17:20:27;;;;;;;;;;;5.50;99.90;;;;;;5021769;28;19909;-88
2021/01/22 17:22:59;;;;;;;;;;;5.50;99.90;;;;;;5095088;22;19925;-92
2021/01/22 17:25:27;;;;;;;;;;;5.50;99.90;;;;;;5033031;28;19924;-92
2021/01/22 17:27:53;;;;;;;;;;;5.40;99.90;;;;;;5043823;28;19922;-92
2021/01/22 17:30:19;;;;;;;;;;;5.50;99.90;;;;;;5052308;28;19913;-90
2021/01/22 17:32:45;;;;;;;;;;;5.50;99.90;;;;;;5172803;23;19961;-91
2021/01/22 17:35:10;;;;;;;;;;;5.50;99.90;;;;;;5018490;28;19902;-92
2021/01/22 17:37:37;;;;;;;;;;;5.50;99.90;;;;;;5026195;28;19904;-90
2021/01/22 17:40:03;;;;;;;;;;;5.50;99.90;;;;;;5012828;28;19941;-91
2021/01/22 17:42:29;;;;;;;;;;;5.50;99.90;;;;;;5012898;28;19933;-91
2021/01/22 17:44:54;;;;;;;;;;;5.40;99.90;;;;;;5013098;28;19909;-90
2021/01/22 17:47:20;;;;;;;;;;;5.40;99.90;;;;;;5012759;28;19913;-90
2021/01/22 17:49:46;;;;;;;;;;;5.40;99.90;;;;;;5002308;28;19988;-90
2021/01/22 17:52:11;;;;;;;;;;;5.40;99.90;;;;;;5001585;28;20614;-91
2021/01/22 17:54:37;;;;;;;;;;;5.40;99.90;;;;;;5021133;23;19928;-88
2021/01/22 17:57:03;;;;;;;;;;;5.40;99.90;;;;;;5015954;28;19944;-87
2021/01/22 17:59:29;;;;;;;;;;;5.40;99.90;;;;;;5010235;28;19910;-89
2021/01/22 18:01:55;;;;;;;;;;;5.40;99.90;;;;;;5012904;28;19909;-88
2021/01/22 18:04:20;;;;;;;;;;;5.40;99.90;;;;;;5011698;28;19921;-89
2021/01/22 18:06:46;;;;;;;;;;;5.40;99.90;;;;;;5009410;28;19917;-88
2021/01/22 18:09:11;;;;;;;;;;;5.30;99.90;;;;;;5008461;28;19914;-89
2021/01/22 18:11:37;;;;;;;;;;;5.30;99.90;;;;;;5001355;28;19953;-89
2021/01/22 18:14:03;;;;;;;;;;;5.30;99.90;;;;;;5012263;28;20392;-88
2021/01/22 18:16:28;;;;;;;;;;;5.20;99.90;;;;;;5016025;28;19909;-89
2021/01/22 18:18:54;;;;;;;;;;;5.30;99.90;;;;;;5003630;28;19916;-89
2021/01/22 18:21:19;;;;;;;;;;;5.20;99.90;;;;;;5015452;28;19916;-88
2021/01/22 18:23:45;;;;;;;;;;;5.20;99.90;;;;;;5009343;28;19960;-89
2021/01/22 18:26:10;;;;;;;;;;;5.10;99.90;;;;;;5010389;28;19913;-88
2021/01/22 18:28:36;;;;;;;;;;;5.10;99.90;;;;;;4996933;28;19909;-89
2021/01/22 18:31:02;;;;;;;;;;;5.10;99.90;;;;;;5011464;28;19905;-88
2021/01/22 18:33:27;;;;;;;;;;;5.10;99.90;;;;;;5013158;28;19913;-88
2021/01/22 18:35:53;;;;;;;;;;;5.10;99.90;;;;;;5014590;28;20005;-89
2021/01/22 18:38:18;;;;;;;;;;;5.10;99.90;;;;;;5001876;28;19916;-88
2021/01/22 18:40:44;;;;;;;;;;;5.10;99.90;;;;;;5002637;28;20024;-88
2021/01/22 18:43:09;;;;;;;;;;;5.10;99.90;;;;;;5271051;23;20841;-94
2021/01/22 18:45:39;;;;;;;;;;;5.10;99.90;;;;;;5004893;28;19949;-92
2021/01/22 18:48:06;;;;;;;;;;;5.10;99.90;;;;;;5008275;28;19924;-93
2021/01/22 18:50:31;;;;;;;;;;;5.00;99.90;;;;;;5079297;23;19909;-93
2021/01/22 18:52:58;;;;;;;;;;;5.00;99.90;;;;;;5030936;28;19925;-94
2021/01/22 18:55:23;;;;;;;;;;;5.00;99.90;;;;;;5063519;28;19948;-93
2021/01/22 18:57:49;;;;;;;;;;;5.00;99.90;;;;;;5061435;28;19905;-92
2021/01/22 19:00:17;;;;;;;;;;;4.90;99.90;;;;;;5025778;28;19937;-93
2021/01/22 19:02:42;;;;;;;;;;;4.90;99.90;;;;;;5011094;28;19909;-93
2021/01/22 19:05:08;;;;;;;;;;;4.90;99.90;;;;;;5027449;28;19909;-92
2021/01/22 19:07:34;;;;;;;;;;;4.90;99.90;;;;;;5039429;23;19944;-91
2021/01/22 19:10:03;;;;;;;;;;;4.90;99.90;;;;;;4996028;28;19914;-95
2021/01/22 19:12:33;;;;;;;;;;;4.90;99.90;;;;;;4988132;28;19906;-92
2021/01/22 19:14:59;;;;;;;;;;;4.90;99.90;;;;;;5008597;28;19934;-92
2021/01/22 19:17:25;;;;;;;;;;;4.90;99.90;;;;;;5008354;28;19924;-94
2021/01/22 19:19:50;;;;;;;;;;;4.90;99.90;;;;;;4991650;28;19910;-94
2021/01/22 19:22:20;;;;;;;;;;;4.90;99.90;;;;;;5008029;28;19905;-93
2021/01/22 19:24:47;;;;;;;;;;;4.90;99.90;;;;;;5008660;28;19906;-93
2021/01/22 19:27:12;;;;;;;;;;;4.90;99.90;;;;;;5002128;28;19972;-93
2021/01/22 19:29:38;;;;;;;;;;;4.80;99.90;;;;;;5057904;23;19919;-87
2021/01/22 19:32:04;;;;;;;;;;;4.90;99.90;;;;;;5040150;28;19902;-89
2021/01/22 19:34:29;;;;;;;;;;;4.80;99.90;;;;;;5040704;28;19965;-88